• Join FlightAware (Why Join?)
  • Login
  • US Flag 
02:30PM EDT


 

Airport Tracker/Info


-or-


 

Live Flight TrackerFlight Track Log ✈ SWA542 ✈ 28-Apr-2013 ✈ KSAT - KLAS

Flight Track Log - Related Links

Times and Time Zones

All times are in EDT time to prevent confusion due to time zone crossing. See the SWA542 flight status page for this flight to view local times or setup timezone preferences in your user account.

Time Position Orientation Groundspeed Altitude Reporting Facility
EDT Latitude Longitude Course Direction KTS MPH feet Rate Location/Type
02:43PM 29.5222 -98.4592 130° Southeast 157 181 1,700  Level Houston Center
02:43PM 29.4983 -98.4261 130° Southeast 172 198 2,900 1,980 Climbing Houston Center
02:44PM 29.5183 -98.3708 67° East 239 275 5,400 2,520 Climbing Houston Center
02:45PM 29.5381 -98.3647 15° North 227 261 6,100 2,340 Climbing Houston Center
02:45PM 29.5661 -98.3867 326° Northwest 274 315 7,100 2,880 Climbing Houston Center
02:46PM 29.5919 -98.4242 308° West 285 328 9,100 2,700 Climbing Houston Center
02:47PM 29.6544 -98.5019 313° West 321 369 11,500 2,820 Climbing Houston Center
02:48PM 29.7217 -98.5869 312° West 359 413 15,000 3,660 Climbing Houston Center
02:49PM 29.7769 -98.6914 301° West 352 405 19,100 3,240 Climbing Houston Center
02:50PM 29.8269 -98.7900 300° West 356 410 21,800 2,220 Climbing Houston Center
02:51PM 29.8839 -98.9025 300° West 379 436 23,800 1,860 Climbing Houston Center
02:52PM 29.9394 -99.0131 300° West 397 457 25,700 1,620 Climbing Houston Center
02:53PM 29.9939 -99.1200 300° West 416 479 27,200 1,560 Climbing Houston Center
02:54PM 30.0539 -99.2364 301° West 423 487 29,000 2,220 Climbing Houston Center
02:55PM 30.1236 -99.3769 300° West 419 482 31,900 2,220 Climbing Houston Center
02:56PM 30.1828 -99.4911 301° West 417 480 33,600 1,500 Climbing Houston Center
02:57PM 30.2381 -99.6036 300° West 408 470 35,100 1,320 Climbing Houston Center
02:58PM 30.2956 -99.7161 301° West 408 470 36,400 1,200 Climbing Houston Center
02:59PM 30.3517 -99.8289 300° West 407 468 37,700 720 Climbing Houston Center
03:00PM 30.4181 -99.9617 300° West 401 461 38,000 120 Climbing Houston Center
03:01PM 30.4725 -100.0725 300° West 398 458 38,000  Level Houston Center
03:02PM 30.5269 -100.1842 300° West 402 463 38,000  Level Houston Center
03:03PM 30.5814 -100.2961 299° West 402 463 38,000  Level Houston Center
03:04PM 30.6369 -100.4064 300° West 399 459 38,000  Level Houston Center
03:05PM 30.7008 -100.5406 299° West 396 456 38,000  Level Houston Center
03:06PM 30.7564 -100.6514 300° West 399 459 38,000  Level Houston Center
03:07PM 30.8100 -100.7639 299° West 399 459 38,000  Level Houston Center
03:08PM 30.8650 -100.8753 300° West 399 459 38,000  Level Houston Center
03:09PM 30.9194 -100.9883 299° West 400 460 38,000  Level Houston Center
03:10PM 30.9833 -101.1258 298° West 403 464 38,000  Level Houston Center
03:12PM 31.0414 -101.2372 301° West 401 461 38,000  Level Houston Center
03:13PM 31.0900 -101.3417 299° West 405 466 38,000  Level Houston Center
03:14PM 31.1558 -101.4806 299° West 408 470 38,000  Level Houston Center
03:15PM 31.2119 -101.5967 299° West 410 472 38,000  Level Houston Center
03:16PM 31.2664 -101.7133 299° West 412 474 38,000  Level Albuquerque Center
03:17PM 31.3219 -101.8319 299° West 416 479 38,000  Level Albuquerque Center
03:18PM 31.3819 -101.9625 298° West 423 487 38,000  Level Albuquerque Center
03:19PM 31.4372 -102.0828 298° West 423 487 38,000  Level Albuquerque Center
03:20PM 31.4936 -102.2000 299° West 416 479 38,000  Level Albuquerque Center
03:21PM 31.5522 -102.3231 299° West 409 471 38,000  Level Albuquerque Center
03:22PM 31.6050 -102.4392 298° West 408 470 38,000  Level Albuquerque Center
03:23PM 31.6494 -102.5378 298° West 416 479 38,000  Level Fort Worth Center
03:24PM 31.7031 -102.6556 298° West 416 479 38,000  Level Fort Worth Center
03:24PM 31.7225 -102.6953 300° West 407 468 38,000  Level Albuquerque Center
03:25PM 31.7761 -102.8114 299° West 407 468 38,000  Level Albuquerque Center
03:26PM 31.8297 -102.9272 299° West 405 466 38,000  Level Albuquerque Center
03:27PM 31.8828 -103.0453 298° West 407 468 38,000  Level Albuquerque Center
03:28PM 31.9358 -103.1603 299° West 408 470 38,000  Level Albuquerque Center
03:29PM 32.0028 -103.3050 299° West 412 474 38,000  Level Albuquerque Center
03:30PM 32.0556 -103.4236 298° West 413 475 38,000  Level Albuquerque Center
03:31PM 32.1106 -103.5442 298° West 413 475 38,000  Level Albuquerque Center
03:32PM 32.1631 -103.6619 298° West 412 474 38,000  Level Albuquerque Center
03:33PM 32.2172 -103.7831 298° West 414 476 38,000  Level Albuquerque Center
03:34PM 32.2717 -103.9033 298° West 414 476 38,000  Level Albuquerque Center
03:35PM 32.3353 -104.0472 298° West 414 476 38,000  Level Albuquerque Center
03:36PM 32.3894 -104.1692 298° West 410 472 38,000  Level Albuquerque Center
03:37PM 32.4428 -104.2903 298° West 404 465 38,000  Level Albuquerque Center
03:38PM 32.4956 -104.4083 298° West 405 466 38,000  Level Albuquerque Center
03:39PM 32.5514 -104.5367 297° West 407 468 38,000  Level Albuquerque Center
03:40PM 32.6033 -104.6564 297° West 408 470 38,000  Level Albuquerque Center
03:41PM 32.6600 -104.7839 298° West 407 468 38,000  Level Albuquerque Center
03:43PM 32.7122 -104.9086 296° West 418 481 38,000  Level Albuquerque Center
03:44PM 32.7686 -105.0364 298° West 407 468 38,000  Level Albuquerque Center
03:45PM 32.8219 -105.1603 297° West 416 479 38,000  Level Albuquerque Center
03:46PM 32.8753 -105.2842 297° West 420 483 38,000  Level Albuquerque Center
03:47PM 32.9239 -105.3983 297° West 423 487 38,000  Level Albuquerque Center
03:48PM 32.9844 -105.5408 297° West 415 478 38,000  Level Albuquerque Center
03:49PM 33.0342 -105.6569 297° West 418 481 38,000  Level Albuquerque Center
03:50PM 33.0861 -105.7789 297° West 417 480 38,000  Level Albuquerque Center
03:51PM 33.1475 -105.9244 297° West 413 475 38,000  Level Albuquerque Center
03:52PM 33.1986 -106.0458 297° West 412 474 38,000  Level Albuquerque Center
03:53PM 33.2500 -106.1692 297° West 415 478 38,000  Level Albuquerque Center
03:54PM 33.3019 -106.2922 297° West 417 480 38,000  Level Albuquerque Center
03:55PM 33.3528 -106.4153 296° West 416 479 38,000  Level Albuquerque Center
03:56PM 33.4047 -106.5392 297° West 418 481 38,000  Level Albuquerque Center
03:57PM 33.4667 -106.6906 296° West 422 486 38,000  Level Albuquerque Center
03:58PM 33.5183 -106.8153 296° West 420 483 38,000  Level Albuquerque Center
03:59PM 33.5689 -106.9403 296° West 420 483 38,000  Level Albuquerque Center
04:00PM 33.6200 -107.0658 296° West 422 486 38,000  Level Albuquerque Center
04:01PM 33.6714 -107.1939 296° West 425 489 38,000  Level Albuquerque Center
04:02PM 33.7331 -107.3439 296° West 421 484 38,000  Level Albuquerque Center
04:03PM 33.7844 -107.4683 296° West 420 483 38,000  Level Albuquerque Center
04:04PM 33.8356 -107.5972 296° West 424 488 38,000  Level Albuquerque Center
04:05PM 33.8869 -107.7244 296° West 425 489 38,000  Level Albuquerque Center
04:06PM 33.9383 -107.8522 296° West 425 489 38,000  Level Albuquerque Center
04:07PM 33.9894 -107.9822 295° West 429 494 38,000 -60 Level Albuquerque Center
04:08PM 34.0514 -108.1383 296° West 432 497 37,900  Descending Albuquerque Center
04:09PM 34.1069 -108.2756 296° West 434 499 38,000  Climbing Albuquerque Center
04:10PM 34.1497 -108.4108 291° West 437 503 38,000  Level Albuquerque Center
04:11PM 34.1922 -108.5453 291° West 435 501 38,000  Level Albuquerque Center
04:12PM 34.2339 -108.6806 290° West 434 499 38,000  Level Albuquerque Center
04:14PM 34.2767 -108.8194 290° West 435 501 38,000  Level Albuquerque Center
04:15PM 34.3247 -108.9697 291° West 432 497 38,000  Level Albuquerque Center
04:16PM 34.3714 -109.1225 290° West 431 496 38,000  Level Albuquerque Center
04:17PM 34.4119 -109.2556 290° West 435 501 38,000  Level Albuquerque Center
04:18PM 34.4536 -109.3933 290° West 445 512 38,000  Level Albuquerque Center
04:19PM 34.5017 -109.5506 290° West 447 514 38,000  Level Albuquerque Center
04:20PM 34.5425 -109.6883 290° West 450 518 38,000  Level Albuquerque Center
04:21PM 34.5906 -109.8481 290° West 450 518 38,000  Level Albuquerque Center
04:22PM 34.6317 -109.9858 290° West 451 519 38,000  Level Albuquerque Center
04:23PM 34.6792 -110.1475 290° West 454 522 38,000  Level Albuquerque Center
04:24PM 34.7217 -110.2856 291° West 457 526 38,000  Level Albuquerque Center
04:25PM 34.7681 -110.4444 290° West 450 518 38,000  Level Albuquerque Center
04:26PM 34.8061 -110.5772 289° West 441 507 38,000  Level Albuquerque Center
04:27PM 34.8503 -110.7356 289° West 440 506 38,000  Level Albuquerque Center
04:28PM 34.8883 -110.8731 289° West 442 509 38,000  Level Albuquerque Center
04:29PM 34.9292 -111.0147 289° West 444 511 38,000  Level Albuquerque Center
04:30PM 34.9722 -111.1622 290° West 463 533 38,000 -360 Level Albuquerque Center
04:31PM 35.0131 -111.3064 289° West 457 526 37,300 -780 Descending Albuquerque Center
04:32PM 35.0533 -111.4481 289° West 448 516 36,400 -1,020 Descending Albuquerque Center
04:33PM 35.1022 -111.6214 289° West 451 519 35,200 -1,020 Descending Albuquerque Center
04:34PM 35.1417 -111.7611 289° West 454 522 34,300 -900 Descending Albuquerque Center
04:35PM 35.1822 -111.9089 289° West 460 529 33,400 -960 Descending Albuquerque Center
04:36PM 35.2233 -112.0561 289° West 461 531 32,400 -1,020 Descending Albuquerque Center
04:37PM 35.2725 -112.2339 289° West 463 533 31,300 -1,020 Descending Albuquerque Center
04:38PM 35.3133 -112.3836 289° West 466 536 30,300 -660 Descending Albuquerque Center
04:39PM 35.3531 -112.5289 289° West 458 527 30,000 -180 Descending Albuquerque Center
04:40PM 35.3892 -112.6603 289° West 450 518 30,000 -300 Level Los Angeles Center
04:41PM 35.4300 -112.8061 289° West 452 520 29,500 -840 Descending Los Angeles Center
04:42PM 35.4717 -112.9667 288° West 447 514 28,300 -1,080 Descending Los Angeles Center
04:43PM 35.5089 -113.1064 288° West 433 498 27,300 -960 Descending Los Angeles Center
04:44PM 35.5467 -113.2453 289° West 430 495 26,300 -660 Descending Los Angeles Center
04:45PM 35.5856 -113.3958 288° West 431 496 26,000 -540 Descending Los Angeles Center
04:46PM 35.6214 -113.5306 288° West 421 484 25,200 -1,500 Descending Los Angeles Center
04:48PM 35.6419 -113.6658 281° West 408 470 23,000 -2,340 Descending Los Angeles Center
04:49PM 35.6647 -113.8219 280° West 392 451 20,400 -2,280 Descending Los Angeles Center
04:50PM 35.6825 -113.9486 280° West 379 436 18,300 -2,100 Descending Los Angeles Center
04:51PM 35.6997 -114.0769 279° West 381 438 16,100 -2,220 Descending Los Angeles Center
04:51PM 35.7075 -114.1517 277° West 376 433 14,700 -2,040 Descending Los Angeles Center
04:52PM 35.7167 -114.1964 284° West 370 426 14,000 -2,280 Descending Los Angeles Center
04:52PM 35.7303 -114.2714 283° West 371 427 12,700 -1,800 Descending Los Angeles Center
04:53PM 35.7356 -114.3403 275° West 355 409 12,200 -780 Descending Los Angeles Center
04:53PM 35.7486 -114.3714 297° West 337 388 12,000 -240 Descending Los Angeles Center
04:54PM 35.7914 -114.4056 327° Northwest 305 351 12,000  Level Los Angeles Center
04:54PM 35.8250 -114.4225 338° Northwest 296 341 12,000 -120 Level Los Angeles Center
04:55PM 35.8678 -114.4428 339° North 292 336 11,900 -660 Descending Los Angeles Center
04:55PM 35.8906 -114.4642 323° Northwest 296 341 11,400 -1,500 Descending Los Angeles Center
04:56PM 35.9242 -114.5144 310° West 293 337 10,400 -1,260 Descending Los Angeles Center
04:56PM 35.9514 -114.5525 311° West 291 335 10,000 -420 Descending Los Angeles Center
04:57PM 35.9747 -114.5861 311° West 283 326 10,000 -540 Level Los Angeles Center
04:57PM 35.9961 -114.6175 310° West 256 295 9,500 -1,020 Descending Los Angeles Center
04:58PM 36.0192 -114.6494 312° West 259 298 9,000 -900 Descending Los Angeles Center
04:59PM 36.0722 -114.7253 311° West 249 287 8,000 -900 Descending Los Angeles Center
04:59PM 36.0739 -114.7536 274° West 231 266 7,800 -900 Descending Los Angeles Center
05:00PM 36.0744 -114.8061 271° West 243 280 7,100 -1,200 Descending Los Angeles Center
05:00PM 36.0733 -114.8392 268° West 230 265 6,500 -1,260 Descending Los Angeles Center
05:01PM 36.0747 -114.8861 272° West 236 272 5,800 -1,140 Descending Los Angeles Center
05:02PM 36.0739 -114.9656 269° West 235 270 4,700 -1,200 Descending Los Angeles Center
05:03PM 36.0739 -115.0319 270° West 215 247 3,400 -1,020 Descending Los Angeles Center
05:04PM 36.0742 -115.0856 270° West 185 213 2,700 -780 Descending Los Angeles Center
05:05PM 36.0739 -115.1367 270° West 164 189 1,900 -780 Descending Los Angeles Center
05:07PM 36.0667 -115.1500 270° West  Level FlightAware Approximate